createdAt,value
2024-05-09T00:00:50.340Z,994.9
2024-05-09T00:04:53.364Z,994.9
2024-05-09T00:08:56.066Z,994.8
2024-05-09T00:10:57.737Z,994.9
2024-05-09T00:15:00.198Z,994.9
2024-05-09T00:19:03.710Z,994.9
2024-05-09T00:21:05.009Z,994.9
2024-05-09T00:25:07.284Z,994.8
2024-05-09T00:27:08.999Z,994.9
2024-05-09T00:31:10.955Z,994.9
2024-05-09T00:35:13.562Z,994.8
2024-05-09T00:37:15.104Z,994.9
2024-05-09T00:41:19.627Z,994.9
2024-05-09T00:43:20.022Z,994.9
2024-05-09T00:47:23.736Z,994.9
2024-05-09T00:51:26.746Z,994.9
2024-05-09T00:53:27.989Z,994.9
2024-05-09T00:57:30.799Z,994.9
2024-05-09T01:01:34.114Z,994.9
2024-05-09T01:03:35.708Z,995
2024-05-09T01:07:38.759Z,994.9
2024-05-09T01:09:39.967Z,994.9
2024-05-09T01:11:41.853Z,994.9
2024-05-09T01:13:43.364Z,994.9
2024-05-09T01:17:46.416Z,994.8
2024-05-09T01:19:47.581Z,994.9
2024-05-09T01:23:50.094Z,994.9
2024-05-09T01:25:51.190Z,994.7
2024-05-09T01:29:53.987Z,994.8
2024-05-09T01:33:56.963Z,994.9
2024-05-09T01:35:58.060Z,994.9
2024-05-09T01:40:00.751Z,994.8
2024-05-09T01:42:01.809Z,994.9
2024-05-09T01:46:05.229Z,994.9
2024-05-09T01:52:09.498Z,994.8
2024-05-09T01:56:11.771Z,994.8
2024-05-09T02:02:16.420Z,994.8
2024-05-09T02:06:20.051Z,994.8
2024-05-09T02:08:21.911Z,994.8
2024-05-09T02:12:24.716Z,994.8
2024-05-09T02:16:28.010Z,994.9
2024-05-09T02:18:29.326Z,994.9
2024-05-09T02:22:33.072Z,994.8
2024-05-09T02:24:34.436Z,994.9
2024-05-09T02:28:37.726Z,994.7
2024-05-09T02:32:40.434Z,994.9
2024-05-09T02:34:41.351Z,994.8
2024-05-09T02:38:44.809Z,994.8
2024-05-09T02:42:48.417Z,994.7
2024-05-09T02:44:49.758Z,994.7
2024-05-09T02:48:52.439Z,994.7
2024-05-09T02:50:54.113Z,994.7
2024-05-09T02:52:55.403Z,994.6
2024-05-09T02:54:56.964Z,994.7
2024-05-09T02:59:00.632Z,994.7
2024-05-09T03:01:01.728Z,994.7
2024-05-09T03:03:02.935Z,994.7
2024-05-09T03:05:04.035Z,994.7
2024-05-09T03:07:05.739Z,994.8
2024-05-09T03:11:08.785Z,994.8
2024-05-09T03:13:10.332Z,994.8
2024-05-09T03:15:11.806Z,994.9
2024-05-09T03:17:13.175Z,994.8
2024-05-09T03:21:16.516Z,994.9
2024-05-09T03:23:17.760Z,994.8
2024-05-09T03:27:21.434Z,994.8
2024-05-09T03:31:24.517Z,994.8
2024-05-09T03:33:26.313Z,994.8
2024-05-09T03:37:28.763Z,994.7
2024-05-09T03:41:31.431Z,994.7
2024-05-09T03:43:33.007Z,994.8
2024-05-09T03:47:36.077Z,994.7
2024-05-09T03:49:37.723Z,994.7
2024-05-09T03:53:40.698Z,994.7
2024-05-09T03:57:43.164Z,994.7
2024-05-09T03:59:44.248Z,994.8
2024-05-09T04:03:47.667Z,994.8
2024-05-09T04:05:49.353Z,994.8
2024-05-09T04:09:52.428Z,994.8
2024-05-09T04:13:55.541Z,994.9
2024-05-09T04:15:56.623Z,995
2024-05-09T04:19:59.346Z,995
2024-05-09T04:24:03.007Z,995
2024-05-09T04:26:04.578Z,994.8
2024-05-09T04:30:10.031Z,994.9
2024-05-09T04:32:09.579Z,994.9
2024-05-09T04:36:12.532Z,994.9
2024-05-09T04:42:17.296Z,994.9
2024-05-09T04:46:20.182Z,994.9
2024-05-09T04:48:21.921Z,995
2024-05-09T04:50:28.887Z,994.9
2024-05-09T04:52:24.734Z,994.9
2024-05-09T04:56:28.237Z,995.1
2024-05-09T04:58:30.007Z,995.1
2024-05-09T05:00:35.277Z,995.1
2024-05-09T05:02:32.357Z,995.1
2024-05-09T05:04:34.207Z,995.1
2024-05-09T05:08:37.546Z,995.1
2024-05-09T05:10:38.593Z,995.1
2024-05-09T05:12:39.754Z,995.1
2024-05-09T05:14:41.218Z,995.1
2024-05-09T05:17:35.555Z,995.1
2024-05-09T05:19:36.715Z,995.1
2024-05-09T05:23:39.875Z,995.2
2024-05-09T05:25:41.674Z,995.2
2024-05-09T05:29:44.422Z,995.1
2024-05-09T05:33:47.675Z,995.1
2024-05-09T05:35:48.907Z,995.1
2024-05-09T05:39:52.135Z,995.2
2024-05-09T05:41:53.508Z,995.2
2024-05-09T05:45:56.001Z,995.2
2024-05-09T05:49:59.173Z,995.1
2024-05-09T05:52:00.202Z,995.2
2024-05-09T05:56:02.894Z,995.3
2024-05-09T06:00:09.197Z,995.3
2024-05-09T06:02:07.555Z,995.2
2024-05-09T06:06:10.446Z,995.2
2024-05-09T06:08:11.863Z,995.3
2024-05-09T06:10:17.182Z,995.3
2024-05-09T06:12:14.594Z,995.3
2024-05-09T06:16:16.561Z,995.3
2024-05-09T06:18:18.537Z,995.2
2024-05-09T06:22:20.328Z,995.4
2024-05-09T06:24:21.441Z,995.3
2024-05-09T06:28:24.636Z,995.3
2024-05-09T06:32:27.518Z,995.2
2024-05-09T06:34:28.565Z,995.2
2024-05-09T06:38:31.330Z,995.2
2024-05-09T06:40:36.435Z,995.2
2024-05-09T06:44:34.958Z,995.3
2024-05-09T06:48:38.237Z,995.2
2024-05-09T06:50:39.633Z,995.1
2024-05-09T06:54:42.372Z,995.3
2024-05-09T06:58:45.884Z,995.2
2024-05-09T07:00:46.863Z,995.2
2024-05-09T07:04:50.088Z,995.2
2024-05-09T07:06:51.722Z,995.1
2024-05-09T07:10:54.510Z,995.1
2024-05-09T07:14:57.605Z,995.1
2024-05-09T07:16:59.116Z,995.2
2024-05-09T07:21:00.994Z,995
2024-05-09T07:23:02.261Z,995.1
2024-05-09T07:27:05.548Z,995.1
2024-05-09T07:31:08.281Z,995
2024-05-09T07:33:09.605Z,995.1
2024-05-09T07:37:12.511Z,995
2024-05-09T07:41:14.957Z,995
2024-05-09T07:43:16.602Z,995
2024-05-09T07:47:52.049Z,994.9
2024-05-09T07:53:35.207Z,995
2024-05-09T07:57:25.400Z,994.9
2024-05-09T07:59:26.354Z,994.9
2024-05-09T08:03:28.936Z,994.8
2024-05-09T08:05:30.494Z,994.9
2024-05-09T08:09:33.896Z,994.9
2024-05-09T08:13:35.911Z,994.8
2024-05-09T08:15:37.601Z,994.8
2024-05-09T08:19:39.453Z,994.8
2024-05-09T08:21:41.062Z,994.8
2024-05-09T08:25:43.200Z,994.8
2024-05-09T08:29:44.814Z,994.7
2024-05-09T08:31:45.718Z,994.8
2024-05-09T08:35:48.078Z,994.8
2024-05-09T08:39:49.987Z,994.7
2024-05-09T08:41:51.376Z,994.8
2024-05-09T08:45:53.858Z,994.7
2024-05-09T08:47:54.837Z,994.8
2024-05-09T08:51:56.956Z,994.8
2024-05-09T08:55:59.455Z,994.8
2024-05-09T08:58:00.778Z,994.8
2024-05-09T09:02:02.815Z,994.8
2024-05-09T09:04:04.576Z,994.8
2024-05-09T09:08:07.391Z,994.8
2024-05-09T09:12:10.671Z,994.8
2024-05-09T09:14:11.484Z,994.8
2024-05-09T09:18:13.581Z,994.7
2024-05-09T09:22:16.543Z,994.7
2024-05-09T09:24:17.799Z,994.7
2024-05-09T09:28:20.686Z,994.7
2024-05-09T09:30:27.381Z,994.7
2024-05-09T09:32:23.105Z,994.6
2024-05-09T09:34:24.775Z,994.7
2024-05-09T09:38:27.375Z,994.7
2024-05-09T09:40:31.380Z,994.7
2024-05-09T09:42:30.151Z,994.7
2024-05-09T09:44:31.023Z,994.7
2024-05-09T09:46:32.426Z,994.7
2024-05-09T09:50:35.075Z,994.6
2024-05-09T09:54:36.981Z,994.6
2024-05-09T09:56:37.794Z,994.5
2024-05-09T10:00:40.937Z,994.5
2024-05-09T10:02:42.461Z,994.5
2024-05-09T10:06:45.395Z,994.7
2024-05-09T10:10:47.547Z,994.6
2024-05-09T10:12:47.980Z,994.6
2024-05-09T10:16:51.039Z,994.6
2024-05-09T10:20:54.350Z,994.5
2024-05-09T10:22:56.027Z,994.4
2024-05-09T10:26:59.285Z,994.5
2024-05-09T10:29:00.894Z,994.5
2024-05-09T10:33:03.688Z,994.5
2024-05-09T10:37:06.446Z,994.5
2024-05-09T10:39:07.137Z,994.3
2024-05-09T10:43:10.097Z,994.4
2024-05-09T10:45:11.347Z,994.4
2024-05-09T10:49:13.485Z,994.4
2024-05-09T10:53:16.581Z,994.3
2024-05-09T10:55:17.909Z,994.4
2024-05-09T10:59:20.152Z,994.3
2024-05-09T11:03:23.425Z,994.3
2024-05-09T11:05:24.598Z,994.3
2024-05-09T11:09:26.651Z,994.3
2024-05-09T11:11:27.713Z,994.3
2024-05-09T11:13:29.088Z,994.2
2024-05-09T11:15:30.522Z,994.1
2024-05-09T11:19:33.052Z,994.2
2024-05-09T11:21:34.258Z,994.1
2024-05-09T11:25:36.966Z,994.1
2024-05-09T11:27:38.565Z,994.2
2024-05-09T11:31:40.516Z,994.1
2024-05-09T11:35:42.511Z,994
2024-05-09T11:37:44.291Z,994
2024-05-09T11:41:47.062Z,993.9
2024-05-09T11:43:48.019Z,993.9
2024-05-09T11:47:50.049Z,993.8
2024-05-09T11:51:53.438Z,993.7
2024-05-09T11:53:54.971Z,993.9
2024-05-09T11:57:57.532Z,993.9
2024-05-09T12:02:00.450Z,993.9
2024-05-09T12:04:45.341Z,993.9
2024-05-09T12:08:47.098Z,993.8
2024-05-09T12:12:49.177Z,993.7
2024-05-09T12:14:50.787Z,993.7
2024-05-09T12:18:53.305Z,993.7
2024-05-09T12:20:54.096Z,993.6
2024-05-09T12:24:56.245Z,993.5
2024-05-09T12:28:59.306Z,993.5
2024-05-09T12:31:00.384Z,993.5
2024-05-09T12:35:02.632Z,993.5
2024-05-09T12:37:03.799Z,993.6
2024-05-09T12:41:05.926Z,993.5
2024-05-09T12:45:07.683Z,993.5
2024-05-09T12:47:09.008Z,993.5
2024-05-09T12:51:11.255Z,993.5
2024-05-09T12:55:14.046Z,993.5
2024-05-09T12:57:14.810Z,993.5
2024-05-09T13:01:17.405Z,993.4
2024-05-09T13:03:18.713Z,993.4
2024-05-09T13:07:21.604Z,993.4
2024-05-09T13:11:24.161Z,993.3
2024-05-09T13:13:25.686Z,993.2
2024-05-09T13:17:28.265Z,993.2
2024-05-09T13:19:29.285Z,993.3
2024-05-09T13:23:31.759Z,993.2
2024-05-09T13:27:34.021Z,993.1
2024-05-09T13:29:35.571Z,993.1
2024-05-09T13:33:38.226Z,993
2024-05-09T13:37:40.599Z,993.1
2024-05-09T13:39:42.366Z,993
2024-05-09T13:43:44.754Z,992.9
2024-05-09T13:45:46.117Z,992.9
2024-05-09T13:47:47.203Z,992.9
2024-05-09T13:49:47.817Z,992.9
2024-05-09T13:53:50.002Z,992.8
2024-05-09T13:55:50.866Z,992.7
2024-05-09T13:59:53.343Z,992.8
2024-05-09T14:01:54.668Z,992.7
2024-05-09T14:05:57.312Z,992.7
2024-05-09T14:10:00.509Z,992.7
2024-05-09T14:12:01.103Z,992.7
2024-05-09T14:16:04.659Z,992.7
2024-05-09T14:18:06.615Z,992.6
2024-05-09T14:22:07.900Z,992.5
2024-05-09T14:26:10.623Z,992.5
2024-05-09T14:28:12.501Z,992.4
2024-05-09T14:32:13.989Z,992.3
2024-05-09T14:36:16.759Z,992.4
2024-05-09T14:38:17.597Z,992.4
2024-05-09T14:42:19.259Z,992.2
2024-05-09T14:44:20.152Z,992.3
2024-05-09T14:48:22.891Z,992.2
2024-05-09T14:52:24.767Z,992.2
2024-05-09T14:54:26.534Z,992.2
2024-05-09T14:58:29.684Z,992.1
2024-05-09T15:00:35.101Z,992.2
2024-05-09T15:04:33.334Z,992.1
2024-05-09T15:08:34.912Z,992.1
2024-05-09T15:10:36.668Z,992
2024-05-09T15:14:38.183Z,992
2024-05-09T15:20:42.252Z,992
2024-05-09T15:24:44.879Z,992
2024-05-09T15:26:46.280Z,992
2024-05-09T15:30:49.580Z,992
2024-05-09T15:34:51.530Z,992
2024-05-09T15:36:52.466Z,992
2024-05-09T15:40:55.206Z,992
2024-05-09T15:42:56.901Z,991.9
2024-05-09T15:46:59.119Z,991.8
2024-05-09T15:51:01.565Z,991.9
2024-05-09T15:53:02.379Z,991.9
2024-05-09T15:57:05.207Z,991.8
2024-05-09T15:59:06.217Z,991.8
2024-05-09T16:03:09.089Z,991.8
2024-05-09T16:07:11.598Z,991.7
2024-05-09T16:09:12.544Z,991.8
2024-05-09T16:13:14.639Z,991.7
2024-05-09T16:17:16.222Z,991.7
2024-05-09T16:19:18.297Z,991.7
2024-05-09T16:23:20.523Z,991.8
2024-05-09T16:25:21.938Z,991.7
2024-05-09T16:29:24.123Z,991.6
2024-05-09T16:33:27.530Z,991.7
2024-05-09T16:35:28.938Z,991.7
2024-05-09T16:39:31.244Z,991.7
2024-05-09T16:41:31.964Z,991.6
2024-05-09T16:45:34.567Z,991.6
2024-05-09T16:49:37.071Z,991.7
2024-05-09T16:51:38.416Z,991.6
2024-05-09T16:55:41.679Z,991.6
2024-05-09T17:01:45.874Z,991.6
2024-05-09T17:05:48.221Z,991.6
2024-05-09T17:07:48.630Z,991.6
2024-05-09T17:11:50.616Z,991.6
2024-05-09T17:15:53.497Z,991.6
2024-05-09T17:17:55.020Z,991.6
2024-05-09T17:21:57.101Z,991.6
2024-05-09T17:23:58.846Z,991.6
2024-05-09T17:28:02.337Z,991.6
2024-05-09T17:32:04.627Z,991.6
2024-05-09T17:34:06.286Z,991.6
2024-05-09T17:38:09.472Z,991.6
2024-05-09T17:40:16.504Z,991.6
2024-05-09T17:44:13.465Z,991.6
2024-05-09T17:48:16.593Z,991.6
2024-05-09T17:50:23.838Z,991.6
2024-05-09T17:54:20.010Z,991.6
2024-05-09T17:58:22.898Z,991.7
2024-05-09T18:00:29.392Z,991.6
2024-05-09T18:04:29.064Z,991.6
2024-05-09T18:06:27.979Z,991.6
2024-05-09T18:10:35.086Z,991.5
2024-05-09T18:14:33.528Z,991.6
2024-05-09T18:16:35.002Z,991.6
2024-05-09T18:20:41.371Z,991.6
2024-05-09T18:22:39.052Z,991.6
2024-05-09T18:26:41.229Z,991.6
2024-05-09T18:30:44.881Z,991.6
2024-05-09T18:32:46.314Z,991.8
2024-05-09T18:36:48.208Z,991.7
2024-05-09T18:42:52.151Z,991.7
2024-05-09T18:46:54.132Z,991.7
2024-05-09T18:51:40.187Z,991.7
2024-05-09T18:53:43.980Z,991.7
2024-05-09T18:57:44.236Z,991.8
2024-05-09T18:59:45.397Z,991.8
2024-05-09T19:03:48.878Z,991.8
2024-05-09T19:07:50.774Z,991.8
2024-05-09T19:09:51.837Z,991.9
2024-05-09T19:13:54.452Z,991.9
2024-05-09T19:15:55.623Z,991.9
2024-05-09T19:19:58.992Z,991.9
2024-05-09T19:24:01.344Z,992
2024-05-09T19:26:02.574Z,992
2024-05-09T19:30:07.311Z,992
2024-05-09T19:34:07.563Z,992.1
2024-05-09T19:36:09.274Z,992
2024-05-09T19:40:17.938Z,992.1
2024-05-09T19:42:12.861Z,992.2
2024-05-09T19:46:16.013Z,992.1
2024-05-09T19:50:22.903Z,992.2
2024-05-09T19:52:19.523Z,992.1
2024-05-09T19:56:22.512Z,992
2024-05-09T19:58:24.124Z,992.1
2024-05-09T20:02:27.464Z,992.1
2024-05-09T20:06:29.878Z,992.1
2024-05-09T20:08:31.254Z,992
2024-05-09T20:12:33.962Z,992.1
2024-05-09T20:16:36.818Z,992.1
2024-05-09T20:18:38.435Z,992.1
2024-05-09T20:22:41.235Z,992.2
2024-05-09T20:24:42.308Z,992.2
2024-05-09T20:26:43.960Z,992.2
2024-05-09T20:28:45.237Z,992.2
2024-05-09T20:32:47.927Z,992.2
2024-05-09T20:34:49.550Z,992.2
2024-05-09T20:38:52.863Z,992.1
2024-05-09T20:40:54.535Z,992.2
2024-05-09T20:44:56.680Z,992.1
2024-05-09T20:48:59.190Z,992.1
2024-05-09T20:51:00.498Z,992.1
2024-05-09T20:55:03.943Z,992.1
2024-05-09T20:59:07.005Z,992.2
2024-05-09T21:01:08.795Z,992.2
2024-05-09T21:05:11.758Z,992.2
2024-05-09T21:07:12.923Z,992.1
2024-05-09T21:09:14.085Z,992.1
2024-05-09T21:11:15.528Z,992.2
2024-05-09T21:15:18.107Z,992.1
2024-05-09T21:17:19.796Z,992.2
2024-05-09T21:19:20.913Z,992.2
2024-05-09T21:21:22.811Z,992.1
2024-05-09T21:23:24.707Z,992.2
2024-05-09T21:27:27.779Z,992.1
2024-05-09T21:31:31.215Z,992.1
2024-05-09T21:33:32.963Z,992.1
2024-05-09T21:37:35.739Z,992
2024-05-09T21:43:39.434Z,992.1
2024-05-09T21:47:42.596Z,992.1
2024-05-09T21:49:43.837Z,992.1
2024-05-09T21:51:44.871Z,992
2024-05-09T21:53:46.279Z,992.1
2024-05-09T21:57:48.806Z,992
2024-05-09T21:59:50.206Z,992.1
2024-05-09T22:03:53.287Z,992.1
2024-05-09T22:05:54.469Z,992.1
2024-05-09T22:09:57.860Z,992.1
2024-05-09T22:13:59.881Z,992.1
2024-05-09T22:16:01.417Z,992
2024-05-09T22:20:05.815Z,992.1
2024-05-09T22:24:07.779Z,992
2024-05-09T22:26:08.968Z,992
2024-05-09T22:30:11.962Z,992.1
2024-05-09T22:32:12.865Z,992.1
2024-05-09T22:34:14.886Z,992.2
2024-05-09T22:36:16.247Z,992.2
2024-05-09T22:38:18.132Z,992.1
2024-05-09T22:42:20.443Z,992.1
2024-05-09T22:44:21.971Z,992.1
2024-05-09T22:46:23.864Z,992.2
2024-05-09T22:48:26.156Z,992.2
2024-05-09T22:52:29.229Z,992.2
2024-05-09T22:54:30.550Z,992.2
2024-05-09T22:58:33.946Z,992.1
2024-05-09T23:02:37.068Z,992.1
2024-05-09T23:04:38.701Z,992.1
2024-05-09T23:08:41.789Z,992
2024-05-09T23:12:44.887Z,992.1
2024-05-09T23:14:46.088Z,992.1
2024-05-09T23:18:48.988Z,992.1
2024-05-09T23:20:50.407Z,992.1
2024-05-09T23:24:53.827Z,992
2024-05-09T23:28:56.574Z,992
2024-05-09T23:30:57.723Z,992.1
2024-05-09T23:35:00.440Z,992
2024-05-09T23:37:01.814Z,992.1
2024-05-09T23:41:04.639Z,992.1
2024-05-09T23:45:07.649Z,992.1
2024-05-09T23:47:10.774Z,992.1
2024-05-09T23:51:12.580Z,992.1
2024-05-09T23:55:15.429Z,992.1
2024-05-09T23:57:16.985Z,992
